Estación Meteorológica Peña el Pijo (Robertgarden) [ 07/20/18 16:37:35 CEST ]

Fecha Hora Presion(HPa) Temp (°C) Humedad % Rocio (°C) Viento ( m/s) Direccion Lluvia 1Hora(mm) Lluvia 24H(mm) LLuvia Total(mm)
2018-Jan-22 01:01:44 1017.900 4.4 79 1.1         62.16
2018-Jan-22 02:03:42 1017.600 4.3 80 1.2         62.16
2018-Jan-22 03:01:55 1017.400 4.1 81 1.2         62.16
2018-Jan-22 04:01:43 1017.000 3.9 82 1.1         62.16
2018-Jan-22 05:01:57 1016.600 3.6 82 0.8         62.16
2018-Jan-22 06:01:50 1016.500 3.5 83 0.9         62.16
2018-Jan-22 07:01:53 1016.500 3.8 83 1.2         62.16
2018-Jan-22 08:01:48 1016.600 3.9 83 1.3         62.16
2018-Jan-22 09:01:47 1016.900 4.1 82 1.3         62.16
2018-Jan-22 10:01:53 1017.000 8.4 79 5.0         62.16
2018-Jan-22 11:01:41 1017.000 15.2 59 7.2         62.16
2018-Jan-22 12:01:46 1016.600 19.4 41 5.8         62.16
2018-Jan-22 13:01:42 1015.700 20.4 34 3.9         62.16
2018-Jan-22 14:01:52 1015.100 22.0 30 3.7         62.16
2018-Jan-22 15:01:48 1014.600 23.1 28 3.5         62.16
2018-Jan-22 16:01:49 1014.600 21.5 26 1.0         62.16
2018-Jan-22 17:02:03 1014.600 19.8 28 0.6         62.16
2018-Jan-22 18:01:49 1014.800 15.9 34 -0.1         62.16
2018-Jan-22 19:01:51 1015.600 11.2 44 -0.7         62.16
2018-Jan-22 20:01:42 1016.100 9.7 48 -0.8         62.16
2018-Jan-22 21:01:47 1016.300 8.1 50 -1.7         62.16
2018-Jan-22 22:01:43 1016.200 7.2 53 -1.8         62.16
2018-Jan-22 23:01:48 1016.700 6.4 53 -2.5         62.16

Temperatura Máxima:23°    Temperatura Mínima:
Presión Máxima:1017.900 Hpa    Presión Mínima:1014.600 Hpa


Volver